PWSweather.com
Personal Weather Stations
Station Observations
WISCHPK61
Green Bay Schmitt Park, Green Bay, WI 54311

Green Bay Schmitt ParkGreen Bay, WI 54311

Lat: 44.514277, Lon: -87.935067

Elevation: 735

Station Type: Acu Rite Pro Weather Center model 02032C

http://greenbayweathercam.com

High Low Average
Temperature 39.4°F4.1°C 25.9°F-3.4°C 32.1°F0.1°C
Dew Point 36.9°F2.7°C 24.7°F-4.1°C 30.3°F-0.9°C
Winds 2.3 mph 3.7 kmh Calm Calm Calm SSECalm SSE
Wind Gusts 2.3 mph3.7 kmh -- --
Humidity 99% 76% 93%
Pressure 29.59 in1002.0 mb 28.69 in971.6 mb -
Precipitation 0.45 in11.4 mm - -
Hour Temp Dew Point Humidity Winds Wind Gusts Pressure Precip Precip Rate Daily Precip Total
12:00 AM 25.9°F-3.4°C 25.7°F-3.5°C 99% Calm Calm -- 29.59 in1002.0 mb - 0.00 in0.0 mm 0.00 in0.0 mm
01:00 AM 26.4°F-3.1°C 26.2°F-3.2°C 99% Calm Calm -- 29.57 in1001.4 mb - 0.00 in0.0 mm 0.00 in0.0 mm
02:00 AM 27.0°F-2.8°C 26.8°F-2.9°C 99% Calm Calm -- 29.56 in1001.0 mb - 0.00 in0.0 mm 0.00 in0.0 mm
03:00 AM 27.1°F-2.7°C 26.9°F-2.8°C 99% Calm Calm -- 29.54 in1000.3 mb - 0.00 in0.0 mm 0.00 in0.0 mm
04:00 AM 27.9°F-2.3°C 27.7°F-2.4°C 99% Calm Calm -- 29.51 in999.3 mb - 0.00 in0.0 mm 0.00 in0.0 mm
05:00 AM 28.6°F-1.9°C 24.7°F-4.1°C 85% Calm Calm -- 29.50 in999.0 mb - 0.00 in0.0 mm 0.00 in0.0 mm
06:00 AM 30.0°F-1.1°C 25.2°F-3.8°C 82% Calm Calm -- 29.46 in997.6 mb - 0.00 in0.0 mm 0.00 in0.0 mm
07:00 AM 30.4°F-0.9°C 30.2°F-1.0°C 99% Calm Calm -- 29.46 in997.6 mb - 0.00 in0.0 mm 0.00 in0.0 mm
08:00 AM 31.6°F-0.2°C 31.4°F-0.3°C 99% Calm Calm -- 29.42 in996.3 mb - 0.00 in0.0 mm 0.00 in0.0 mm
09:00 AM 33.1°F0.6°C 32.9°F0.5°C 99% 1.2 mph SSE1.9 kmh SSE -- 29.40 in995.6 mb - 0.00 in0.0 mm 0.00 in0.0 mm
10:00 AM 32.5°F0.3°C 26.1°F-3.3°C 77% Calm Calm -- 29.34 in993.6 mb - 0.00 in0.0 mm 0.00 in0.0 mm
11:00 AM 33.3°F0.7°C 31.5°F-0.3°C 93% Calm Calm -- 29.30 in992.2 mb - 0.00 in0.0 mm 0.00 in0.0 mm
12:00 PM 35.4°F1.9°C 28.9°F-1.7°C 77% 2.3 mph W3.7 kmh W 2.3 mph3.7 kmh 29.22 in989.5 mb - 0.00 in0.0 mm 0.00 in0.0 mm
01:00 PM 38.7°F3.7°C 36.0°F2.2°C 90% Calm Calm -- 29.22 in989.5 mb - 0.00 in0.0 mm 0.00 in0.0 mm
02:00 PM 39.4°F4.1°C 32.4°F0.2°C 76% Calm Calm 1.2 mph1.9 kmh 29.18 in988.1 mb - 0.04 in1.0 mm 0.04 in1.0 mm
03:00 PM 37.9°F3.3°C 33.5°F0.8°C 84% Calm Calm -- 29.15 in987.1 mb - 0.03 in0.8 mm 0.07 in1.8 mm
04:00 PM 37.2°F2.9°C 36.9°F2.7°C 99% Calm Calm -- 29.11 in985.8 mb - 0.03 in0.8 mm 0.10 in2.5 mm
05:00 PM 34.5°F1.4°C 34.2°F1.2°C 99% Calm Calm -- 29.09 in985.1 mb - 0.00 in0.0 mm 0.10 in2.5 mm
06:00 PM 33.1°F0.6°C 32.9°F0.5°C 99% Calm Calm -- 29.04 in983.4 mb - 0.01 in0.3 mm 0.11 in2.8 mm
07:00 PM 32.0°F0.0°C 31.8°F-0.1°C 99% Calm Calm -- 29.00 in982.1 mb - 0.00 in0.0 mm 0.11 in2.8 mm
08:00 PM 32.0°F0.0°C 31.8°F-0.1°C 99% Calm Calm -- 28.92 in979.3 mb - 0.00 in0.0 mm 0.11 in2.8 mm
09:00 PM 32.2°F0.1°C 32.0°F0.0°C 99% Calm Calm -- 28.86 in977.3 mb - 0.00 in0.0 mm 0.11 in2.8 mm
10:00 PM 32.2°F0.1°C 32.0°F0.0°C 99% Calm Calm -- 28.77 in974.3 mb - 0.10 in2.5 mm 0.21 in5.3 mm
11:00 PM 32.2°F0.1°C 30.4°F-0.9°C 93% Calm Calm -- 28.69 in971.6 mb - 0.24 in6.1 mm 0.45 in11.4 mm